Accueil
METAR-TAF:

METAR-TAF

Aéroports :

Aéroport international de Tabarka-Aïn Draham

Tabarka, Tunisie

latitude: 36-57N, longitude: 008-45E, altitude: 20 m

Observation

Le bulletin a été fait il y a 39 minutes, à 20:00 UTC
Vent 6 kt de est
Température 19°C
Humidité 73%
Pression 1015 hPa
Visibilité 10 km ou plus
Quelques nuages à une hauteur de 2000 ft

METAR: DTKA 312000Z 08006KT 9999 FEW020 19/14 Q1015 NOSIG

Heure: 21:39 (20:39 UTC)

Prévision

Le bulletin a été fait il y a 2 heures et 39 minutes, à 18:00 UTC
Prévision valable du 31 à 19 UTC au 01 à 04 UTC
Vent 8 kt de nord-est
Visibilité 10 km ou plus
Quelques nuages à une hauteur de 2000 ft
Evoluant progressivement
du 31 à 19 UTC au 31 à 21 UTC
Vent 10 kt de est/sud-est

TAF: DTKA 311800Z 3119/0104 05008KT 9999 FEW020 BECMG 3119/3121 11010KT

Observations et prévisions météorologiques de plus de 4000 aéroports (messages METAR et TAF).

Les stations disponibles sont représentées par des disques jaunes et rouges sur la carte.

Passer la souris dessus pour voir le nom de la station.

Cliquer dessus pour voir les observations et prévisions météorologiques.

Pour changer de carte: cliquez sur les boutons verts avec une croix noire pour zoomer, sur le bouton vert avec un tiret pour effectuer un zoom arrière, ou sur les flèches vertes pour les cartes adjacentes.


METAR-TAF: